Time;durP1;ratioP1;P1;durP2;ratioP2;P2;SDS_P1;SDS_P2;PMS_P1;PMS_P2;Temp;Humidity;BMP_temperature;BMP_pressure;BME280_temperature;BME280_humidity;BME280_pressure;Samples;Min_cycle;Max_cycle;Signal;HPM_P1;HPM_P2
2023/03/26 00:01:04;;;;;;;10.15;2.85;;;6.40;97.90;;;;;;5089664;28;20032;-66
2023/03/26 00:03:31;;;;;;;9.05;2.67;;;6.40;97.90;;;;;;5089998;28;20020;-65
2023/03/26 00:06:07;;;;;;;9.68;3.10;;;6.50;98.00;;;;;;5088781;28;20050;-65
2023/03/26 00:08:34;;;;;;;9.32;2.60;;;6.60;97.60;;;;;;5093098;28;20142;-66
2023/03/26 00:11:00;;;;;;;8.73;2.83;;;6.80;97.50;;;;;;5088698;28;20103;-66
2023/03/26 00:13:26;;;;;;;8.30;2.28;;;6.80;97.30;;;;;;5078972;28;20520;-66
2023/03/26 00:15:51;;;;;;;6.93;2.10;;;7.00;96.90;;;;;;5083807;28;20043;-66
2023/03/26 00:18:20;;;;;;;11.25;2.40;;;7.00;97.00;;;;;;5079464;28;20027;-66
2023/03/26 00:20:46;;;;;;;8.90;1.83;;;7.00;97.00;;;;;;5087598;28;20025;-66
2023/03/26 00:23:12;;;;;;;7.15;1.80;;;7.10;96.80;;;;;;5086311;28;20104;-66
2023/03/26 00:25:42;;;;;;;6.03;1.98;;;7.20;96.20;;;;;;5083320;28;20028;-66
2023/03/26 00:28:08;;;;;;;10.18;2.10;;;7.10;96.70;;;;;;5081474;28;20031;-66
2023/03/26 00:30:40;;;;;;;7.28;1.70;;;7.00;97.10;;;;;;5079701;28;20443;-66
2023/03/26 00:33:10;;;;;;;7.63;1.65;;;6.80;97.60;;;;;;5087005;28;20146;-65
2023/03/26 00:35:37;;;;;;;11.95;2.50;;;6.60;97.80;;;;;;5084198;28;20158;-64
2023/03/26 00:38:02;;;;;;;7.32;1.83;;;6.60;98.00;;;;;;5081210;28;20074;-65
2023/03/26 00:40:35;;;;;;;9.57;1.70;;;6.60;97.80;;;;;;5088243;28;20978;-67
2023/03/26 00:43:01;;;;;;;10.13;2.00;;;6.60;97.70;;;;;;5076141;28;20030;-67
2023/03/26 00:45:26;;;;;;;6.72;1.95;;;6.50;98.00;;;;;;5076449;28;20029;-66
2023/03/26 00:47:52;;;;;;;6.20;1.73;;;6.50;98.00;;;;;;5081437;28;20055;-66
2023/03/26 00:50:17;;;;;;;4.55;1.67;;;6.50;98.00;;;;;;5090367;28;20042;-66
2023/03/26 00:52:45;;;;;;;9.05;1.83;;;6.40;98.00;;;;;;5082174;28;20062;-67
2023/03/26 00:55:11;;;;;;;5.90;1.90;;;6.30;98.00;;;;;;5075520;28;20020;-67
2023/03/26 00:57:37;;;;;;;8.25;2.08;;;6.20;98.00;;;;;;5081269;28;20070;-66
2023/03/26 01:00:14;;;;;;;9.57;2.35;;;6.20;98.00;;;;;;5076700;28;20032;-66
2023/03/26 01:02:39;;;;;;;6.70;2.10;;;6.20;98.00;;;;;;5089280;28;20024;-66
2023/03/26 01:05:33;;;;;;;7.72;1.88;;;6.10;98.00;;;;;;5087800;28;20313;-66
2023/03/26 01:08:32;;;;;;;12.30;2.55;;;6.20;98.00;;;;;;5084626;28;20032;-66
2023/03/26 01:11:26;;;;;;;7.53;2.10;;;6.10;98.00;;;;;;5081436;28;20127;-66
2023/03/26 01:14:14;;;;;;;10.00;1.98;;;6.20;98.00;;;;;;5078238;28;20028;-66
2023/03/26 01:16:50;;;;;;;10.35;2.30;;;6.30;98.00;;;;;;5076760;28;20418;-66
2023/03/26 01:19:32;;;;;;;9.77;2.75;;;6.30;98.00;;;;;;5078717;28;20401;-66
2023/03/26 01:21:59;;;;;;;7.88;2.20;;;6.30;98.00;;;;;;5094448;28;20027;-66
2023/03/26 01:24:25;;;;;;;10.45;2.42;;;6.40;98.00;;;;;;5080501;28;20025;-64
2023/03/26 01:27:00;;;;;;;6.97;1.77;;;6.40;98.00;;;;;;5086545;28;20192;-66
2023/03/26 01:29:33;;;;;;;10.02;2.33;;;6.40;98.00;;;;;;5093015;28;20028;-66
2023/03/26 01:32:11;;;;;;;8.60;2.25;;;6.30;98.00;;;;;;5073813;28;20333;-66
2023/03/26 01:34:39;;;;;;;10.55;2.42;;;6.30;98.00;;;;;;5088672;28;20032;-66
2023/03/26 01:37:26;;;;;;;10.90;2.20;;;6.30;98.00;;;;;;5092518;28;20032;-66
2023/03/26 01:40:13;;;;;;;5.95;1.90;;;6.30;98.00;;;;;;5089181;28;20029;-66
2023/03/26 01:42:46;;;;;;;6.70;1.80;;;6.30;98.00;;;;;;5084317;28;20039;-66
2023/03/26 01:45:17;;;;;;;9.85;2.75;;;6.20;98.00;;;;;;5086818;28;20301;-66
2023/03/26 01:47:44;;;;;;;9.13;1.92;;;6.30;98.00;;;;;;5075781;28;20033;-66
2023/03/26 01:50:10;;;;;;;12.65;2.70;;;6.30;98.00;;;;;;5082227;28;20413;-66
2023/03/26 01:52:35;;;;;;;10.70;2.53;;;6.50;98.00;;;;;;5085366;28;20042;-66
2023/03/26 01:55:01;;;;;;;9.90;2.88;;;6.60;98.00;;;;;;5086620;28;20047;-65
2023/03/26 01:57:35;;;;;;;7.97;2.22;;;6.60;98.00;;;;;;5081951;28;20071;-66
2023/03/26 02:00:44;;;;;;;12.32;2.60;;;6.60;98.00;;;;;;5086679;28;20032;-65
2023/03/26 02:03:30;;;;;;;11.55;2.30;;;6.60;98.00;;;;;;5064179;28;20352;-66
2023/03/26 02:06:01;;;;;;;8.68;1.90;;;6.50;98.00;;;;;;5097689;28;20354;-66
2023/03/26 02:08:30;;;;;;;12.68;2.88;;;6.70;98.00;;;;;;5076482;28;20043;-66
2023/03/26 02:10:58;;;;;;;8.52;2.15;;;6.70;98.00;;;;;;5074903;28;20060;-66
2023/03/26 02:13:25;;;;;;;12.43;2.90;;;6.70;97.90;;;;;;5076222;28;20028;-66
2023/03/26 02:16:01;;;;;;;8.38;1.92;;;6.80;98.00;;;;;;5077148;28;20032;-66
2023/03/26 02:18:40;;;;;;;11.18;2.45;;;6.80;97.60;;;;;;5074577;28;20036;-66
2023/03/26 02:21:21;;;;;;;14.52;2.65;;;6.90;97.40;;;;;;5081450;28;20035;-66
2023/03/26 02:23:56;;;;;;;12.75;2.88;;;6.90;97.10;;;;;;5074058;28;20035;-66
2023/03/26 02:26:23;;;;;;;12.30;2.50;;;6.80;97.10;;;;;;5082790;28;20345;-66
2023/03/26 02:28:48;;;;;;;9.60;2.42;;;6.90;97.00;;;;;;5079422;28;20043;-66
2023/03/26 02:31:14;;;;;;;11.65;2.05;;;7.00;96.40;;;;;;5087828;28;20024;-66
2023/03/26 02:33:40;;;;;;;14.77;2.78;;;7.10;95.70;;;;;;5091935;28;20066;-66
2023/03/26 02:36:07;;;;;;;10.27;2.25;;;7.20;95.80;;;;;;5088846;28;20348;-66
2023/03/26 02:38:40;;;;;;;9.88;2.25;;;7.10;96.00;;;;;;5080140;28;20020;-66
2023/03/26 02:41:07;;;;;;;12.10;2.33;;;7.10;95.90;;;;;;5079237;28;20048;-67
2023/03/26 02:43:32;;;;;;;12.25;2.60;;;7.20;95.80;;;;;;5081532;28;20333;-67
2023/03/26 02:45:58;;;;;;;9.93;2.28;;;7.10;96.20;;;;;;5083666;28;20027;-66
2023/03/26 02:48:24;;;;;;;11.48;2.50;;;7.00;96.80;;;;;;5087211;28;20031;-67
2023/03/26 02:50:52;;;;;;;12.20;2.50;;;7.00;96.60;;;;;;5080738;28;20062;-66
2023/03/26 02:53:22;;;;;;;10.93;2.15;;;7.00;96.60;;;;;;5081455;28;20020;-66
2023/03/26 02:55:49;;;;;;;14.07;2.30;;;7.00;96.10;;;;;;5079040;28;21507;-66
2023/03/26 02:58:16;;;;;;;11.23;2.17;;;6.90;96.60;;;;;;5077897;28;20060;-66
2023/03/26 03:00:45;;;;;;;9.80;2.60;;;6.90;97.00;;;;;;5084484;28;20040;-66
2023/03/26 03:03:11;;;;;;;9.35;2.20;;;6.80;97.40;;;;;;5083367;28;20021;-66
2023/03/26 03:05:37;;;;;;;8.63;2.35;;;6.70;97.30;;;;;;5090671;28;20039;-66
2023/03/26 03:08:04;;;;;;;11.13;2.65;;;6.70;97.80;;;;;;5092032;28;20052;-66
2023/03/26 03:10:31;;;;;;;9.05;2.13;;;6.60;97.40;;;;;;5091678;28;20320;-66
2023/03/26 03:12:58;;;;;;;9.48;2.10;;;6.60;97.60;;;;;;5086097;28;20995;-66
2023/03/26 03:15:23;;;;;;;9.32;2.15;;;6.60;97.50;;;;;;5086094;28;20028;-66
2023/03/26 03:17:49;;;;;;;8.65;2.20;;;6.70;97.70;;;;;;5078599;28;20035;-66
2023/03/26 03:20:15;;;;;;;10.77;2.30;;;6.60;97.90;;;;;;5085466;28;20408;-65
2023/03/26 03:22:41;;;;;;;6.85;2.25;;;6.50;97.90;;;;;;5078161;28;20059;-66
2023/03/26 03:25:08;;;;;;;14.35;2.47;;;6.50;98.00;;;;;;5078260;28;20379;-66
2023/03/26 03:27:38;;;;;;;10.35;2.15;;;6.50;98.00;;;;;;5076132;28;20702;-66
2023/03/26 03:30:04;;;;;;;13.00;3.17;;;6.50;98.00;;;;;;5078778;28;20032;-66
2023/03/26 03:32:30;;;;;;;11.07;2.60;;;6.40;98.00;;;;;;5089282;28;20024;-65
2023/03/26 03:34:55;;;;;;;12.68;2.50;;;6.40;98.00;;;;;;5091485;28;20099;-66
2023/03/26 03:37:22;;;;;;;13.15;3.08;;;6.40;98.00;;;;;;5077660;28;20048;-64
2023/03/26 03:39:47;;;;;;;12.05;2.65;;;6.40;98.00;;;;;;5082083;28;20032;-65
2023/03/26 03:42:13;;;;;;;10.75;2.28;;;6.40;98.00;;;;;;5084378;28;20028;-66
2023/03/26 03:44:38;;;;;;;11.48;3.10;;;6.40;98.00;;;;;;5078059;28;20036;-66
2023/03/26 03:47:05;;;;;;;11.05;2.30;;;6.40;98.00;;;;;;5087646;28;20028;-65
2023/03/26 03:49:31;;;;;;;7.53;2.03;;;6.40;98.00;;;;;;5088493;28;20016;-65
2023/03/26 03:51:57;;;;;;;11.40;2.30;;;6.40;98.00;;;;;;5091761;28;20032;-66
2023/03/26 03:54:23;;;;;;;11.30;2.10;;;6.40;98.00;;;;;;5093249;28;20032;-65
2023/03/26 03:56:48;;;;;;;13.02;2.63;;;6.40;98.00;;;;;;5086850;28;20046;-64
2023/03/26 03:59:14;;;;;;;11.88;2.78;;;6.50;97.90;;;;;;5080078;28;20101;-66
2023/03/26 04:01:42;;;;;;;8.70;2.30;;;6.50;97.80;;;;;;5081325;28;20411;-66
2023/03/26 04:04:08;;;;;;;13.85;2.20;;;6.50;97.00;;;;;;5077744;28;20071;-66
2023/03/26 04:06:35;;;;;;;9.18;2.65;;;6.60;97.10;;;;;;5078776;28;20028;-66
2023/03/26 04:09:00;;;;;;;10.18;2.13;;;6.60;97.40;;;;;;5077313;28;20025;-65
2023/03/26 04:11:26;;;;;;;11.43;2.40;;;6.60;97.60;;;;;;5077090;28;20024;-66
2023/03/26 04:13:51;;;;;;;6.85;1.73;;;6.50;98.00;;;;;;5074271;28;20028;-65
2023/03/26 04:16:17;;;;;;;11.60;2.28;;;6.60;97.00;;;;;;5081227;28;20021;-65
2023/03/26 04:18:45;;;;;;;11.02;2.47;;;6.60;97.00;;;;;;5086754;28;20028;-65
2023/03/26 04:21:11;;;;;;;9.20;2.17;;;6.60;97.40;;;;;;5088180;28;20125;-66
2023/03/26 04:23:37;;;;;;;12.30;2.50;;;6.60;96.10;;;;;;5082164;28;20032;-66
2023/03/26 04:26:05;;;;;;;10.48;2.25;;;6.70;94.90;;;;;;5076800;28;20032;-66
2023/03/26 04:28:49;;;;;;;12.90;2.45;;;6.80;94.70;;;;;;5075243;28;20043;-66
2023/03/26 04:31:22;;;;;;;8.70;2.05;;;7.00;93.10;;;;;;5077180;28;20056;-66
2023/03/26 04:33:53;;;;;;;10.93;2.35;;;7.10;93.20;;;;;;5090095;28;20031;-66
2023/03/26 04:36:25;;;;;;;10.55;2.30;;;7.00;94.40;;;;;;5089156;28;20016;-66
2023/03/26 04:38:52;;;;;;;15.10;2.80;;;7.10;92.30;;;;;;5078160;28;20025;-66
2023/03/26 04:41:19;;;;;;;11.52;2.72;;;7.30;90.80;;;;;;5083938;28;20036;-66
2023/03/26 04:43:49;;;;;;;12.93;2.00;;;7.40;90.90;;;;;;5089153;28;20029;-66
2023/03/26 04:46:22;;;;;;;9.93;1.90;;;7.30;91.80;;;;;;5077759;28;20103;-66
2023/03/26 04:48:52;;;;;;;12.32;2.67;;;7.20;93.10;;;;;;5090795;28;20358;-66
2023/03/26 04:51:23;;;;;;;7.68;1.80;;;7.10;93.40;;;;;;5083694;28;20032;-66
2023/03/26 04:53:56;;;;;;;9.27;2.28;;;6.90;96.40;;;;;;5084963;28;20439;-66
2023/03/26 04:56:36;;;;;;;8.02;2.20;;;6.60;96.90;;;;;;5078130;28;20032;-66
2023/03/26 04:59:03;;;;;;;9.98;2.17;;;6.50;97.00;;;;;;5081517;28;20063;-66
2023/03/26 05:01:29;;;;;;;12.73;2.10;;;6.60;94.90;;;;;;5080619;28;20059;-66
2023/03/26 05:03:57;;;;;;;16.08;2.78;;;6.70;95.30;;;;;;5086484;28;20098;-65
2023/03/26 05:06:26;;;;;;;10.63;2.13;;;6.80;94.50;;;;;;5076024;28;20028;-66
2023/03/26 05:08:52;;;;;;;11.68;3.20;;;6.80;94.10;;;;;;5076958;28;20069;-65
2023/03/26 05:11:18;;;;;;;15.18;2.42;;;6.80;94.80;;;;;;5077888;28;20029;-66
2023/03/26 05:13:43;;;;;;;7.45;2.00;;;6.70;95.00;;;;;;5081279;28;20333;-66
2023/03/26 05:16:10;;;;;;;6.32;2.05;;;6.70;93.50;;;;;;5076265;28;20135;-66
2023/03/26 05:18:35;;;;;;;5.65;1.95;;;6.70;91.30;;;;;;5087294;28;20070;-66
2023/03/26 05:21:01;;;;;;;7.55;2.20;;;6.70;91.70;;;;;;5081040;28;20048;-65
2023/03/26 05:23:27;;;;;;;8.75;2.45;;;6.60;92.30;;;;;;5084927;28;20066;-65
2023/03/26 05:25:52;;;;;;;10.35;2.25;;;6.70;92.30;;;;;;5080076;28;20098;-65
2023/03/26 05:28:19;;;;;;;7.72;1.80;;;6.80;89.90;;;;;;5077851;28;20066;-65
2023/03/26 05:30:45;;;;;;;6.65;1.92;;;6.90;89.80;;;;;;5082129;28;20036;-65
2023/03/26 05:33:11;;;;;;;10.60;2.28;;;7.00;89.80;;;;;;5074008;28;20020;-68
2023/03/26 05:35:37;;;;;;;5.18;1.80;;;7.00;91.20;;;;;;5075438;28;20112;-68
2023/03/26 05:38:02;;;;;;;9.43;2.33;;;6.90;92.00;;;;;;5077159;28;20025;-67
2023/03/26 05:40:28;;;;;;;10.50;2.13;;;6.90;92.10;;;;;;5081481;28;20486;-66
2023/03/26 05:42:54;;;;;;;7.88;2.10;;;6.80;93.00;;;;;;5083524;28;20483;-66
2023/03/26 05:45:21;;;;;;;10.50;2.58;;;6.80;93.50;;;;;;5080659;28;20075;-66
2023/03/26 05:47:48;;;;;;;10.30;2.35;;;6.80;93.70;;;;;;5075982;28;20062;-66
2023/03/26 05:50:14;;;;;;;8.60;1.95;;;6.70;94.10;;;;;;5077264;28;20024;-66
2023/03/26 05:52:39;;;;;;;9.68;2.35;;;6.70;94.70;;;;;;5079327;28;20032;-66
2023/03/26 05:55:06;;;;;;;12.40;2.35;;;6.70;95.30;;;;;;5080683;28;20119;-66
2023/03/26 05:57:34;;;;;;;11.45;3.78;;;6.60;95.20;;;;;;5076448;28;20119;-66
2023/03/26 06:00:00;;;;;;;7.70;2.25;;;6.60;95.20;;;;;;5082340;28;20128;-66
2023/03/26 06:02:28;;;;;;;9.43;2.42;;;6.60;95.80;;;;;;5088829;28;20032;-66
2023/03/26 06:04:55;;;;;;;8.90;2.13;;;6.60;95.80;;;;;;5089150;28;20024;-66
2023/03/26 06:07:21;;;;;;;13.02;2.63;;;6.60;95.80;;;;;;5085622;28;20365;-66
2023/03/26 06:09:47;;;;;;;11.02;2.63;;;6.60;96.40;;;;;;5091278;28;20119;-66
2023/03/26 06:12:13;;;;;;;12.52;2.58;;;6.50;96.30;;;;;;5087386;28;20021;-66
2023/03/26 06:14:41;;;;;;;10.82;3.55;;;6.50;96.40;;;;;;5087938;28;20050;-66
2023/03/26 06:17:07;;;;;;;9.50;4.47;;;6.60;96.40;;;;;;5081089;28;20036;-65
2023/03/26 06:19:33;;;;;;;11.38;4.28;;;6.60;96.90;;;;;;5095853;28;20050;-66
2023/03/26 06:21:59;;;;;;;12.32;2.50;;;6.60;96.90;;;;;;5082086;28;20028;-66
2023/03/26 06:24:24;;;;;;;8.15;2.30;;;6.60;97.00;;;;;;5094158;28;20024;-66
2023/03/26 06:26:51;;;;;;;8.82;2.10;;;6.50;97.40;;;;;;5092124;28;20031;-66
2023/03/26 06:29:17;;;;;;;14.90;2.80;;;6.50;97.70;;;;;;5076755;28;20146;-65
2023/03/26 06:31:43;;;;;;;8.85;2.65;;;6.50;97.80;;;;;;5081908;28;20107;-66
2023/03/26 06:34:08;;;;;;;10.52;2.92;;;6.40;97.70;;;;;;5088988;28;20320;-65
2023/03/26 06:36:34;;;;;;;11.48;2.63;;;6.40;97.90;;;;;;5093635;28;20032;-66
2023/03/26 06:38:59;;;;;;;10.30;2.65;;;6.40;97.60;;;;;;5082548;28;20297;-66
2023/03/26 06:41:25;;;;;;;8.98;2.40;;;6.40;97.80;;;;;;5085977;28;20115;-65
2023/03/26 06:43:51;;;;;;;7.20;2.10;;;6.30;97.80;;;;;;5092427;28;20087;-66
2023/03/26 06:46:19;;;;;;;10.27;2.92;;;6.30;97.30;;;;;;5086061;28;20535;-64
2023/03/26 06:48:45;;;;;;;7.82;2.22;;;6.20;96.60;;;;;;5089590;28;20405;-66
2023/03/26 06:51:11;;;;;;;13.68;2.60;;;6.20;96.60;;;;;;5077994;28;20035;-65
2023/03/26 06:53:36;;;;;;;10.52;2.78;;;6.10;96.30;;;;;;5088917;28;20481;-66
2023/03/26 06:56:02;;;;;;;14.27;2.90;;;6.00;96.40;;;;;;5086004;28;20294;-64
2023/03/26 06:58:28;;;;;;;9.77;2.85;;;6.10;96.30;;;;;;5091401;28;20423;-65
2023/03/26 07:00:55;;;;;;;12.95;3.28;;;6.10;96.70;;;;;;5084447;28;20336;-64
2023/03/26 07:03:21;;;;;;;7.25;2.70;;;6.20;96.70;;;;;;5091465;28;20027;-66
2023/03/26 07:05:47;;;;;;;16.38;3.08;;;6.20;96.90;;;;;;5098410;28;20101;-66
2023/03/26 07:08:17;;;;;;;10.20;2.95;;;6.20;96.50;;;;;;5087802;28;20387;-64
2023/03/26 07:10:45;;;;;;;7.82;2.40;;;6.20;96.40;;;;;;5088363;28;20042;-66
2023/03/26 07:13:11;;;;;;;11.30;2.80;;;6.20;95.40;;;;;;5092533;28;20107;-66
2023/03/26 07:15:36;;;;;;;10.85;3.65;;;6.10;94.70;;;;;;5098771;28;20132;-66
2023/03/26 07:18:02;;;;;;;12.52;2.60;;;6.00;94.50;;;;;;5095803;28;20027;-67
2023/03/26 07:20:28;;;;;;;15.57;3.13;;;6.00;93.60;;;;;;5086623;28;20074;-65
2023/03/26 07:22:54;;;;;;;14.20;3.35;;;5.90;92.00;;;;;;5091638;28;20107;-66
2023/03/26 07:25:20;;;;;;;12.77;4.50;;;6.00;91.40;;;;;;5090442;28;20107;-66
2023/03/26 07:28:05;;;;;;;12.98;3.95;;;5.90;90.80;;;;;;5090064;28;20118;-67
2023/03/26 07:31:08;;;;;;;13.55;4.45;;;5.90;90.50;;;;;;5082877;28;20044;-68
2023/03/26 07:33:38;;;;;;;12.70;4.15;;;5.90;89.30;;;;;;5087437;28;20028;-67
2023/03/26 07:36:28;;;;;;;12.70;3.97;;;5.90;89.50;;;;;;5095209;28;20030;-66
2023/03/26 07:39:26;;;;;;;13.32;4.32;;;5.90;89.30;;;;;;5084543;28;20032;-67
2023/03/26 07:42:09;;;;;;;12.15;3.83;;;6.00;88.80;;;;;;5076976;28;20024;-68
2023/03/26 07:44:57;;;;;;;11.50;3.33;;;6.00;89.50;;;;;;5095212;28;20028;-66
2023/03/26 07:47:31;;;;;;;13.25;3.38;;;6.00;89.40;;;;;;5093760;28;20051;-66
2023/03/26 07:49:57;;;;;;;10.55;3.70;;;6.10;91.00;;;;;;5084291;28;20036;-66
2023/03/26 07:52:24;;;;;;;14.85;3.97;;;6.10;92.10;;;;;;5086798;28;20064;-67
2023/03/26 07:54:51;;;;;;;13.32;3.42;;;6.20;90.90;;;;;;5075955;28;20031;-67
2023/03/26 07:57:45;;;;;;;7.85;3.00;;;6.20;90.80;;;;;;5092117;28;20348;-68
2023/03/26 08:00:18;;;;;;;10.25;3.10;;;6.10;90.10;;;;;;5092500;28;20031;-68
2023/03/26 08:03:10;;;;;;;13.23;3.20;;;6.20;90.30;;;;;;5081441;28;20024;-68
2023/03/26 08:06:06;;;;;;;7.10;2.75;;;6.30;89.40;;;;;;5093221;28;20028;-67
2023/03/26 08:08:32;;;;;;;11.38;3.22;;;6.30;91.30;;;;;;5081156;28;20032;-67
2023/03/26 08:11:19;;;;;;;10.00;3.00;;;6.30;89.30;;;;;;5076584;28;20017;-67
2023/03/26 08:14:00;;;;;;;12.80;3.55;;;6.40;91.10;;;;;;5076417;28;20027;-66
2023/03/26 08:16:39;;;;;;;8.00;2.65;;;6.40;89.80;;;;;;5081596;28;20028;-66
2023/03/26 08:19:33;;;;;;;8.18;2.63;;;6.40;90.40;;;;;;5078148;28;20036;-66
2023/03/26 08:22:14;;;;;;;7.15;2.75;;;6.40;91.10;;;;;;5079099;28;20056;-68
2023/03/26 08:25:16;;;;;;;9.60;2.60;;;6.50;93.80;;;;;;5091101;28;20032;-66
2023/03/26 08:27:57;;;;;;;9.93;3.05;;;6.50;92.40;;;;;;5079935;28;20078;-66
2023/03/26 08:30:25;;;;;;;6.85;2.60;;;6.50;90.50;;;;;;5083752;28;20074;-65
2023/03/26 08:33:10;;;;;;;6.78;2.42;;;6.50;92.20;;;;;;5094401;28;20351;-67
2023/03/26 08:35:40;;;;;;;;;;;6.50;94.20;;;;;;5094428;28;20031;-67
2023/03/26 08:38:12;;;;;;;7.97;2.33;;;6.60;92.60;;;;;;5082132;28;20308;-67
2023/03/26 08:41:02;;;;;;;6.82;2.47;;;6.70;94.00;;;;;;5077193;28;20028;-65
2023/03/26 08:43:36;;;;;;;10.48;2.92;;;6.80;94.00;;;;;;5075740;28;20029;-66
2023/03/26 08:46:29;;;;;;;6.20;2.22;;;6.90;96.40;;;;;;5076270;28;20024;-66
2023/03/26 08:49:00;;;;;;;7.22;1.85;;;7.00;96.10;;;;;;5082149;28;20107;-66
2023/03/26 08:51:44;;;;;;;5.00;2.05;;;7.00;96.00;;;;;;5082202;28;20111;-65
2023/03/26 08:54:21;;;;;;;5.47;2.05;;;7.00;94.80;;;;;;5086097;28;20025;-65
2023/03/26 08:57:25;;;;;;;10.02;4.22;;;7.10;95.40;;;;;;5090671;28;20487;-66
2023/03/26 09:00:04;;;;;;;5.72;3.10;;;7.10;91.80;;;;;;5083473;28;20123;-66
2023/03/26 09:02:41;;;;;;;8.63;3.08;;;7.00;89.10;;;;;;5078790;28;20484;-66
2023/03/26 09:05:36;;;;;;;8.48;3.03;;;7.10;90.00;;;;;;5093405;28;20028;-66
2023/03/26 09:08:22;;;;;;;6.60;2.08;;;7.30;90.90;;;;;;5078570;28;20031;-66
2023/03/26 09:10:54;;;;;;;4.65;1.90;;;7.40;93.40;;;;;;5077862;28;20032;-66
2023/03/26 09:13:54;;;;;;;5.18;1.60;;;7.50;95.70;;;;;;5080396;28;20106;-65
2023/03/26 09:16:31;;;;;;;6.47;2.28;;;7.70;96.20;;;;;;5084103;28;20036;-66
2023/03/26 09:19:22;;;;;;;6.03;2.13;;;7.80;97.90;;;;;;5079225;28;20023;-66
2023/03/26 09:22:29;;;;;;;3.47;1.55;;;8.10;97.20;;;;;;5078920;28;20315;-65
2023/03/26 09:25:13;;;;;;;4.55;1.63;;;8.70;98.00;;;;;;5080893;28;20451;-66
2023/03/26 09:28:02;;;;;;;3.97;1.58;;;9.50;98.00;;;;;;5075899;28;20037;-65
2023/03/26 09:30:49;;;;;;;4.68;1.50;;;9.60;96.10;;;;;;5075790;28;20029;-66
2023/03/26 09:33:36;;;;;;;4.80;1.63;;;9.60;94.90;;;;;;5078761;28;20020;-65
2023/03/26 09:36:25;;;;;;;3.50;1.90;;;10.10;94.60;;;;;;5087674;28;20028;-65
2023/03/26 09:39:24;;;;;;;5.35;1.45;;;11.00;93.00;;;;;;5081279;28;20035;-65
2023/03/26 09:41:59;;;;;;;4.97;1.50;;;12.00;88.90;;;;;;5083379;28;20039;-65
2023/03/26 09:45:02;;;;;;;3.08;1.30;;;11.30;89.10;;;;;;5089224;28;20297;-65
2023/03/26 09:47:39;;;;;;;4.50;1.30;;;11.20;89.80;;;;;;5093536;28;20028;-65
2023/03/26 09:50:34;;;;;;;3.90;1.60;;;11.70;88.90;;;;;;5092394;28;20063;-65
2023/03/26 09:53:15;;;;;;;5.95;1.80;;;12.20;87.10;;;;;;5083814;28;20067;-65
2023/03/26 09:55:59;;;;;;;4.78;1.48;;;11.20;89.60;;;;;;5091301;28;20095;-64
2023/03/26 09:58:41;;;;;;;4.13;1.40;;;10.80;90.90;;;;;;5091998;28;20332;-65
2023/03/26 10:01:32;;;;;;;5.60;2.20;;;11.40;90.40;;;;;;5088040;28;20567;-65
2023/03/26 10:04:45;;;;;;;5.05;1.88;;;11.50;89.70;;;;;;5088215;28;20024;-64
2023/03/26 10:07:30;;;;;;;5.85;2.60;;;10.90;91.40;;;;;;5084052;28;20065;-65
2023/03/26 10:10:13;;;;;;;6.60;2.50;;;11.10;91.70;;;;;;5087974;28;20671;-65
2023/03/26 10:12:43;;;;;;;5.85;2.47;;;10.80;91.80;;;;;;5077931;28;20028;-65
2023/03/26 10:15:34;;;;;;;5.07;1.75;;;10.20;92.70;;;;;;5081673;28;20026;-64
2023/03/26 10:18:09;;;;;;;7.55;3.10;;;9.60;94.90;;;;;;5083945;28;20025;-64
2023/03/26 10:21:01;;;;;;;8.02;3.28;;;8.90;96.10;;;;;;5079019;28;20325;-66
2023/03/26 10:24:04;;;;;;;2.85;1.17;;;7.70;95.90;;;;;;5093337;28;20044;-66
2023/03/26 10:26:45;;;;;;;7.85;3.67;;;6.50;93.90;;;;;;5090953;28;20027;-65
2023/03/26 10:29:41;;;;;;;4.18;1.70;;;6.10;86.50;;;;;;5088508;28;20469;-67
2023/03/26 10:32:36;;;;;;;3.10;1.30;;;6.20;82.80;;;;;;5084890;28;20023;-64
2023/03/26 10:35:21;;;;;;;2.25;1.00;;;7.00;82.60;;;;;;5087325;28;20024;-65
2023/03/26 10:37:56;;;;;;;;;;;8.00;83.70;;;;;;5086793;28;20024;-66
2023/03/26 10:40:23;;;;;;;2.25;0.90;;;8.90;96.80;;;;;;5085020;28;19908;-67
2023/03/26 10:43:18;;;;;;;1.90;0.80;;;9.70;98.00;;;;;;5090935;28;20032;-65
2023/03/26 10:46:21;;;;;;;3.38;1.20;;;10.20;96.50;;;;;;5082763;28;20020;-66
2023/03/26 10:49:23;;;;;;;3.58;1.20;;;10.40;98.00;;;;;;5096761;28;20043;-66
2023/03/26 10:51:58;;;;;;;4.68;1.40;;;9.90;96.80;;;;;;5085935;28;20064;-66
2023/03/26 10:54:48;;;;;;;5.15;2.92;;;9.60;97.10;;;;;;5090522;28;20030;-66
2023/03/26 10:57:39;;;;;;;5.38;2.85;;;9.10;96.80;;;;;;5088238;28;20050;-65
2023/03/26 11:00:30;;;;;;;3.65;1.33;;;8.60;96.80;;;;;;5089184;28;20028;-64
2023/03/26 11:03:10;;;;;;;5.47;1.88;;;8.00;98.00;;;;;;5098741;28;20032;-65
2023/03/26 11:05:43;;;;;;;4.53;1.80;;;7.30;96.30;;;;;;5081447;28;20016;-66
2023/03/26 11:08:12;;;;;;;9.68;5.00;;;7.00;94.70;;;;;;5084438;28;20445;-66
2023/03/26 11:11:18;;;;;;;6.38;2.70;;;6.90;92.20;;;;;;5090938;28;20024;-65
2023/03/26 11:14:01;;;;;;;6.57;3.65;;;7.00;90.80;;;;;;5096183;28;20049;-65
2023/03/26 11:17:17;;;;;;;8.88;4.35;;;7.10;89.80;;;;;;5075134;28;20047;-62
2023/03/26 11:19:57;;;;;;;7.75;2.92;;;6.90;90.10;;;;;;5048145;28;20117;-65
2023/03/26 11:22:31;;;;;;;3.78;1.20;;;6.70;89.40;;;;;;5081628;28;20321;-67
2023/03/26 11:25:03;;;;;;;14.52;7.15;;;6.50;95.00;;;;;;5090456;28;20028;-66
2023/03/26 11:27:52;;;;;;;12.88;6.50;;;6.50;90.00;;;;;;5075650;28;20102;-66
2023/03/26 11:30:37;;;;;;;5.78;2.83;;;6.50;90.40;;;;;;5089767;28;20024;-65
2023/03/26 11:33:08;;;;;;;6.80;3.55;;;6.60;91.50;;;;;;5080241;28;20053;-65
2023/03/26 11:35:39;;;;;;;9.45;4.47;;;6.70;89.90;;;;;;5088256;28;20035;-65
2023/03/26 11:38:21;;;;;;;5.07;2.13;;;6.80;89.70;;;;;;5090542;28;20039;-65
2023/03/26 11:40:51;;;;;;;5.75;2.25;;;7.00;94.00;;;;;;5079931;28;20060;-66
2023/03/26 11:43:23;;;;;;;3.03;1.08;;;7.30;95.50;;;;;;5077122;28;20059;-65
2023/03/26 11:45:50;;;;;;;4.18;1.63;;;7.90;94.90;;;;;;5082039;28;20119;-66
2023/03/26 11:48:31;;;;;;;4.68;2.45;;;8.50;98.00;;;;;;5078364;28;20024;-65
2023/03/26 11:51:06;;;;;;;4.80;1.40;;;8.90;97.80;;;;;;5086874;28;20027;-66
2023/03/26 11:53:33;;;;;;;5.00;1.92;;;9.30;98.00;;;;;;5081943;28;20340;-65
2023/03/26 11:56:19;;;;;;;4.07;1.40;;;9.60;96.90;;;;;;5090297;28;20030;-66
2023/03/26 11:58:55;;;;;;;5.47;1.50;;;9.90;98.00;;;;;;5089713;28;20032;-65
2023/03/26 12:01:39;;;;;;;7.50;2.63;;;10.00;96.80;;;;;;5086719;28;20323;-65
2023/03/26 12:04:13;;;;;;;4.43;1.85;;;10.40;96.50;;;;;;5086268;28;20388;-65
2023/03/26 12:06:51;;;;;;;4.45;1.67;;;10.40;97.60;;;;;;5080117;28;20039;-66
2023/03/26 12:09:18;;;;;;;5.95;1.55;;;10.30;96.70;;;;;;5079939;28;20025;-65
2023/03/26 12:11:47;;;;;;;4.43;1.33;;;10.70;96.50;;;;;;5092234;28;20106;-65
2023/03/26 12:14:19;;;;;;;5.18;1.40;;;11.30;96.60;;;;;;5091079;28;20069;-67
2023/03/26 12:17:16;;;;;;;4.97;1.23;;;11.30;94.00;;;;;;5083838;28;20039;-65
2023/03/26 12:19:44;;;;;;;5.72;1.35;;;11.40;95.20;;;;;;5082170;28;20074;-65
2023/03/26 12:22:36;;;;;;;6.20;1.50;;;11.40;91.40;;;;;;5083343;28;20091;-65
2023/03/26 12:25:15;;;;;;;5.43;2.13;;;11.30;92.00;;;;;;5076624;28;20417;-65
2023/03/26 12:27:54;;;;;;;6.18;1.75;;;11.50;91.60;;;;;;5082295;28;20028;-65
2023/03/26 12:30:24;;;;;;;7.45;1.80;;;11.70;89.80;;;;;;5078203;28;20029;-66
2023/03/26 12:32:52;;;;;;;7.68;2.67;;;12.10;88.80;;;;;;5089857;28;20103;-65
2023/03/26 12:35:25;;;;;;;4.72;1.63;;;12.40;88.20;;;;;;5077924;28;20416;-65
2023/03/26 12:37:52;;;;;;;6.35;1.30;;;12.20;85.60;;;;;;5075989;28;20040;-65
2023/03/26 12:40:35;;;;;;;4.57;1.58;;;12.00;86.20;;;;;;5085684;28;20043;-65
2023/03/26 12:43:28;;;;;;;6.55;1.70;;;12.30;87.20;;;;;;5075546;28;20029;-65
2023/03/26 12:45:55;;;;;;;7.25;1.63;;;12.10;85.40;;;;;;5096738;28;20035;-65
2023/03/26 12:48:24;;;;;;;5.57;1.55;;;12.20;84.70;;;;;;5083417;28;20063;-64
2023/03/26 12:51:03;;;;;;;5.68;1.90;;;12.00;84.60;;;;;;5094928;28;20428;-64
2023/03/26 12:54:00;;;;;;;6.53;1.70;;;12.00;86.40;;;;;;5087401;28;20123;-64
2023/03/26 12:56:58;;;;;;;4.30;1.45;;;12.00;85.10;;;;;;5096458;28;20351;-64
2023/03/26 12:59:52;;;;;;;6.18;1.75;;;12.10;82.50;;;;;;5082990;28;20030;-64
2023/03/26 13:02:39;;;;;;;4.80;1.73;;;12.60;83.10;;;;;;5093911;28;20031;-64
2023/03/26 13:05:34;;;;;;;8.07;1.50;;;12.80;79.20;;;;;;5096319;28;20020;-64
2023/03/26 13:08:41;;;;;;;7.03;1.52;;;12.60;80.40;;;;;;5084441;28;20100;-64
2023/03/26 13:11:34;;;;;;;4.72;1.58;;;12.50;79.80;;;;;;5093045;28;20042;-64
2023/03/26 13:14:30;;;;;;;4.57;1.70;;;12.20;82.20;;;;;;5091933;28;20031;-64
2023/03/26 13:17:12;;;;;;;4.60;1.50;;;12.40;81.20;;;;;;5096102;28;20472;-64
2023/03/26 13:19:47;;;;;;;5.65;1.58;;;12.70;81.20;;;;;;5082320;28;20055;-64
2023/03/26 13:22:27;;;;;;;4.90;1.50;;;12.80;79.70;;;;;;5079175;28;20024;-64
2023/03/26 13:25:13;;;;;;;4.53;1.30;;;12.90;79.90;;;;;;5075846;28;20029;-64
2023/03/26 13:28:26;;;;;;;6.93;1.85;;;12.80;79.30;;;;;;5074961;28;20413;-64
2023/03/26 13:31:14;;;;;;;5.25;1.55;;;13.00;77.90;;;;;;5084372;28;20032;-64
2023/03/26 13:34:11;;;;;;;7.07;2.00;;;13.20;78.00;;;;;;5090583;28;20020;-64